createdAt,value
2023-06-12T00:01:32.388Z,62.28
2023-06-12T00:04:01.376Z,62.41
2023-06-12T00:06:29.642Z,62.34
2023-06-12T00:08:59.324Z,62.28
2023-06-12T00:11:28.472Z,61.70
2023-06-12T00:13:56.464Z,62.31
2023-06-12T00:16:25.317Z,62.52
2023-06-12T00:18:55.658Z,62.43
2023-06-12T00:21:24.260Z,61.86
2023-06-12T00:23:53.132Z,62.86
2023-06-12T00:26:21.175Z,62.60
2023-06-12T00:28:49.835Z,62.80
2023-06-12T00:31:18.740Z,62.31
2023-06-12T00:33:47.303Z,63.10
2023-06-12T00:36:18.733Z,62.96
2023-06-12T00:38:46.995Z,62.91
2023-06-12T00:41:14.998Z,63.72
2023-06-12T00:43:43.112Z,64.51
2023-06-12T00:46:12.914Z,64.62
2023-06-12T00:48:42.950Z,65.93
2023-06-12T00:51:10.708Z,66.24
2023-06-12T00:53:41.023Z,65.99
2023-06-12T00:56:09.285Z,66.58
2023-06-12T00:58:38.220Z,66.17
2023-06-12T01:01:06.265Z,66.24
2023-06-12T01:03:34.542Z,65.85
2023-06-12T01:06:10.659Z,67.18
2023-06-12T01:09:04.936Z,66.51
2023-06-12T01:11:35.571Z,66.26
2023-06-12T01:14:04.109Z,67.90
2023-06-12T01:16:32.648Z,67.80
2023-06-12T01:19:02.212Z,67.56
2023-06-12T01:21:34.073Z,67.89
2023-06-12T01:24:22.686Z,67.81
2023-06-12T01:27:13.936Z,67.79
2023-06-12T01:29:55.376Z,67.50
2023-06-12T01:32:25.933Z,67.86
2023-06-12T01:34:59.209Z,67.45
2023-06-12T01:37:36.251Z,67.54
2023-06-12T01:40:11.171Z,68.24
2023-06-12T01:42:41.010Z,68.33
2023-06-12T01:45:10.320Z,68.65
2023-06-12T01:47:39.857Z,68.83
2023-06-12T01:50:10.660Z,68.74
2023-06-12T01:52:41.499Z,68.79
2023-06-12T01:55:11.085Z,68.77
2023-06-12T01:57:40.021Z,68.36
2023-06-12T02:00:12.164Z,68.79
2023-06-12T02:02:54.725Z,69.75
2023-06-12T02:05:27.925Z,70.72
2023-06-12T02:07:56.145Z,70.01
2023-06-12T02:10:26.592Z,70.22
2023-06-12T02:12:55.233Z,69.92
2023-06-12T02:15:23.488Z,69.87
2023-06-12T02:17:53.817Z,70.03
2023-06-12T02:20:21.634Z,70.09
2023-06-12T02:22:49.630Z,69.80
2023-06-12T02:25:19.817Z,70.00
2023-06-12T02:27:48.785Z,70.45
2023-06-12T02:30:17.106Z,70.17
2023-06-12T02:32:45.573Z,70.41
2023-06-12T02:35:16.298Z,70.14
2023-06-12T02:37:45.838Z,70.08
2023-06-12T02:40:15.032Z,70.05
2023-06-12T02:42:43.816Z,69.58
2023-06-12T02:45:13.886Z,70.14
2023-06-12T02:47:42.474Z,70.29
2023-06-12T02:50:11.977Z,70.50
2023-06-12T02:52:51.690Z,70.54
2023-06-12T02:55:20.406Z,69.76
2023-06-12T02:57:49.442Z,69.55
2023-06-12T03:00:18.183Z,69.65
2023-06-12T03:02:48.643Z,69.76
2023-06-12T03:05:18.898Z,70.14
2023-06-12T03:07:47.108Z,70.55
2023-06-12T03:10:20.107Z,70.50
2023-06-12T03:12:48.176Z,70.58
2023-06-12T03:15:17.877Z,70.85
2023-06-12T03:17:46.495Z,71.42
2023-06-12T03:20:15.684Z,71.23
2023-06-12T03:22:44.329Z,71.26
2023-06-12T03:25:13.109Z,69.94
2023-06-12T03:27:42.854Z,69.48
2023-06-12T03:30:12.044Z,69.15
2023-06-12T03:32:40.548Z,68.94
2023-06-12T03:35:10.573Z,69.43
2023-06-12T03:37:42.571Z,69.31
2023-06-12T03:40:13.974Z,69.24
2023-06-12T03:42:46.225Z,69.48
2023-06-12T03:45:14.239Z,69.79
2023-06-12T03:47:42.451Z,69.68
2023-06-12T03:50:13.905Z,70.44
2023-06-12T03:52:42.274Z,71.03
2023-06-12T03:55:11.070Z,69.82
2023-06-12T03:57:39.873Z,69.85
2023-06-12T04:00:13.873Z,69.30
2023-06-12T04:02:51.699Z,69.31
2023-06-12T04:05:22.141Z,69.13
2023-06-12T04:07:51.676Z,69.50
2023-06-12T04:10:20.220Z,69.06
2023-06-12T04:12:49.011Z,69.72
2023-06-12T04:15:18.832Z,69.42
2023-06-12T04:17:46.691Z,69.44
2023-06-12T04:20:15.448Z,69.57
2023-06-12T04:22:44.090Z,69.13
2023-06-12T04:25:12.583Z,68.69
2023-06-12T04:27:44.032Z,68.68
2023-06-12T04:30:17.189Z,68.04
2023-06-12T04:32:47.110Z,66.84
2023-06-12T04:35:18.099Z,66.66
2023-06-12T04:37:49.250Z,67.82
2023-06-12T04:40:18.847Z,67.84
2023-06-12T04:42:48.008Z,65.55
2023-06-12T04:45:19.982Z,65.60
2023-06-12T04:47:51.570Z,65.40
2023-06-12T04:50:20.893Z,65.37
2023-06-12T04:52:49.893Z,63.74
2023-06-12T04:55:21.618Z,62.37
2023-06-12T04:57:53.618Z,62.59
2023-06-12T05:00:25.686Z,62.80
2023-06-12T05:02:55.742Z,63.29
2023-06-12T05:05:24.213Z,64.25
2023-06-12T05:07:52.894Z,63.67
2023-06-12T05:10:21.983Z,63.16
2023-06-12T05:12:50.194Z,62.92
2023-06-12T05:15:18.686Z,63.15
2023-06-12T05:17:47.306Z,63.07
2023-06-12T05:20:16.983Z,63.54
2023-06-12T05:22:46.260Z,62.63
2023-06-12T05:25:14.678Z,61.13
2023-06-12T05:27:42.725Z,62.44
2023-06-12T05:30:12.221Z,61.24
2023-06-12T05:32:40.515Z,60.07
2023-06-12T05:35:10.604Z,60.25
2023-06-12T05:37:40.960Z,59.56
2023-06-12T05:40:10.495Z,58.38
2023-06-12T05:42:40.214Z,58.31
2023-06-12T05:45:10.734Z,58.66
2023-06-12T05:47:38.906Z,58.03
2023-06-12T05:50:10.394Z,57.50
2023-06-12T05:52:40.384Z,58.25
2023-06-12T05:55:12.429Z,56.41
2023-06-12T05:57:41.894Z,56.80
2023-06-12T06:00:12.437Z,57.25
2023-06-12T06:02:45.624Z,56.00
2023-06-12T06:05:28.142Z,57.42
2023-06-12T06:07:57.432Z,56.08
2023-06-12T06:10:28.499Z,56.75
2023-06-12T06:12:56.566Z,54.82
2023-06-12T06:15:24.570Z,55.75
2023-06-12T06:17:55.050Z,54.41
2023-06-12T06:20:23.104Z,55.94
2023-06-12T06:22:53.179Z,54.75
2023-06-12T06:25:21.741Z,55.32
2023-06-12T06:27:51.932Z,54.31
2023-06-12T06:30:20.604Z,54.90
2023-06-12T06:32:48.579Z,53.76
2023-06-12T06:35:17.264Z,54.09
2023-06-12T06:37:46.187Z,53.97
2023-06-12T06:40:16.277Z,53.90
2023-06-12T06:42:44.973Z,53.11
2023-06-12T06:45:15.958Z,52.57
2023-06-12T06:47:45.226Z,53.37
2023-06-12T06:50:14.308Z,53.73
2023-06-12T06:52:43.635Z,53.33
2023-06-12T06:55:13.875Z,53.44
2023-06-12T06:57:44.999Z,53.58
2023-06-12T07:00:16.291Z,53.35
2023-06-12T07:02:46.694Z,53.67
2023-06-12T07:05:18.110Z,53.40
2023-06-12T07:08:01.009Z,53.01
2023-06-12T07:10:31.837Z,52.23
2023-06-12T07:13:00.293Z,52.36
2023-06-12T07:15:36.661Z,52.51
2023-06-12T07:18:05.814Z,52.75
2023-06-12T07:20:33.860Z,52.61
2023-06-12T07:23:01.872Z,52.20
2023-06-12T07:25:30.701Z,53.02
2023-06-12T07:27:59.538Z,53.04
2023-06-12T07:30:27.879Z,52.40
2023-06-12T07:32:58.619Z,51.99
2023-06-12T07:35:26.814Z,51.10
2023-06-12T07:37:54.995Z,51.09
2023-06-12T07:40:23.855Z,51.31
2023-06-12T07:42:51.912Z,51.30
2023-06-12T07:45:22.128Z,51.28
2023-06-12T07:47:53.447Z,50.22
2023-06-12T07:50:27.467Z,50.31
2023-06-12T07:52:57.244Z,51.30
2023-06-12T07:55:25.825Z,49.82
2023-06-12T07:57:55.770Z,49.16
2023-06-12T08:00:25.961Z,49.32
2023-06-12T08:02:59.907Z,47.78
2023-06-12T08:05:37.471Z,47.97
2023-06-12T08:08:13.700Z,46.95
2023-06-12T08:10:43.709Z,46.56
2023-06-12T08:13:14.011Z,47.22
2023-06-12T08:15:42.537Z,45.79
2023-06-12T08:18:13.404Z,45.68
2023-06-12T08:20:44.122Z,43.73
2023-06-12T08:23:12.164Z,44.48
2023-06-12T08:25:40.750Z,43.44
2023-06-12T08:28:10.206Z,43.85
2023-06-12T08:30:38.840Z,42.57
2023-06-12T08:33:07.173Z,43.28
2023-06-12T08:35:37.318Z,42.61
2023-06-12T08:38:06.769Z,42.24
2023-06-12T08:40:35.941Z,42.19
2023-06-12T08:43:04.319Z,41.23
2023-06-12T08:45:34.867Z,41.15
2023-06-12T08:48:07.213Z,40.68
2023-06-12T08:50:36.102Z,39.61
2023-06-12T08:53:08.294Z,39.10
2023-06-12T08:55:40.789Z,37.81
2023-06-12T08:58:10.190Z,38.63
2023-06-12T09:00:38.205Z,36.91
2023-06-12T09:03:07.530Z,37.95
2023-06-12T09:05:39.155Z,37.79
2023-06-12T09:08:08.910Z,36.76
2023-06-12T09:10:40.279Z,37.34
2023-06-12T09:13:09.517Z,35.48
2023-06-12T09:15:41.602Z,34.16
2023-06-12T09:18:12.685Z,33.45
2023-06-12T09:20:43.531Z,32.52
2023-06-12T09:23:15.124Z,34.35
2023-06-12T09:25:55.391Z,33.58
2023-06-12T09:28:39.053Z,34.41
2023-06-12T09:31:07.363Z,34.51
2023-06-12T09:33:37.020Z,33.88
2023-06-12T09:36:06.514Z,33.79
2023-06-12T09:38:37.462Z,33.42
2023-06-12T09:41:08.032Z,33.80
2023-06-12T09:43:36.430Z,33.16
2023-06-12T09:46:06.229Z,32.96
2023-06-12T09:48:36.380Z,34.10
2023-06-12T09:51:07.882Z,31.96
2023-06-12T09:53:42.036Z,32.02
2023-06-12T09:56:11.702Z,31.21
2023-06-12T09:58:41.004Z,31.67
2023-06-12T10:01:10.151Z,31.83
2023-06-12T10:03:39.906Z,33.48
2023-06-12T10:06:11.100Z,34.01
2023-06-12T10:08:41.950Z,34.76
2023-06-12T10:11:12.133Z,34.01
2023-06-12T10:13:40.962Z,34.84
2023-06-12T10:16:10.605Z,35.43
2023-06-12T10:18:39.660Z,35.32
2023-06-12T10:21:08.649Z,36.25
2023-06-12T10:23:39.044Z,36.55
2023-06-12T10:26:10.840Z,36.66
2023-06-12T10:28:39.034Z,35.65
2023-06-12T10:31:12.610Z,35.55
2023-06-12T10:33:40.945Z,33.87
2023-06-12T10:36:14.081Z,32.92
2023-06-12T10:38:50.040Z,32.17
2023-06-12T10:41:33.887Z,30.63
2023-06-12T10:44:01.942Z,30.52
2023-06-12T10:46:49.456Z,30.65
2023-06-12T10:49:19.804Z,30.42
2023-06-12T10:51:53.755Z,30.83
2023-06-12T10:54:27.509Z,30.72
2023-06-12T10:57:04.547Z,30.43
2023-06-12T10:59:36.234Z,29.84
2023-06-12T11:02:05.900Z,28.91
2023-06-12T11:04:38.993Z,29.02
2023-06-12T11:07:08.731Z,29.64
2023-06-12T11:09:41.495Z,28.57
2023-06-12T11:12:12.064Z,28.87
2023-06-12T11:14:40.110Z,28.46
2023-06-12T11:17:08.269Z,29.19
2023-06-12T11:19:37.329Z,29.43
2023-06-12T11:22:05.744Z,29.36
2023-06-12T11:24:34.346Z,29.28
2023-06-12T11:27:04.382Z,29.75
2023-06-12T11:29:48.637Z,29.21
2023-06-12T11:32:25.614Z,29.47
2023-06-12T11:34:54.123Z,30.66
2023-06-12T11:37:26.770Z,29.07
2023-06-12T11:40:01.394Z,30.41
2023-06-12T11:42:29.969Z,28.70
2023-06-12T11:44:59.411Z,29.77
2023-06-12T11:49:59.816Z,29.70
2023-06-12T11:52:27.956Z,30.04
2023-06-12T11:57:32.267Z,29.77
2023-06-12T12:00:02.120Z,27.72
2023-06-12T12:02:41.124Z,27.92
2023-06-12T12:05:12.230Z,27.78
2023-06-12T12:07:41.771Z,26.31
2023-06-12T12:10:12.546Z,26.37
2023-06-12T12:12:47.023Z,25.45
2023-06-12T12:15:17.123Z,25.61
2023-06-12T12:17:49.820Z,25.17
2023-06-12T12:20:22.260Z,24.94
2023-06-12T12:22:52.381Z,24.46
2023-06-12T12:25:22.765Z,23.83
2023-06-12T12:27:52.843Z,22.73
2023-06-12T12:30:23.456Z,22.72
2023-06-12T12:32:54.440Z,22.34
2023-06-12T12:35:23.955Z,22.43
2023-06-12T12:37:52.940Z,21.93
2023-06-12T12:40:25.217Z,20.88
2023-06-12T12:42:55.794Z,22.52
2023-06-12T12:45:29.019Z,22.89
2023-06-12T12:47:57.315Z,21.74
2023-06-12T12:50:28.695Z,22.30
2023-06-12T12:52:58.792Z,22.61
2023-06-12T12:55:26.919Z,20.57
2023-06-12T12:58:05.987Z,20.55
2023-06-12T13:00:47.907Z,20.21
2023-06-12T13:03:18.000Z,19.57
2023-06-12T13:05:46.710Z,20.45
2023-06-12T13:08:15.120Z,18.41
2023-06-12T13:10:44.334Z,19.71
2023-06-12T13:13:15.509Z,18.86
2023-06-12T13:15:46.494Z,18.74
2023-06-12T13:18:15.856Z,19.68
2023-06-12T13:20:44.270Z,20.68
2023-06-12T13:23:12.298Z,19.15
2023-06-12T13:25:41.260Z,19.36
2023-06-12T13:28:09.237Z,19.45
2023-06-12T13:30:37.204Z,18.72
2023-06-12T13:33:07.836Z,18.31
2023-06-12T13:35:39.378Z,19.35
2023-06-12T13:38:07.987Z,20.42
2023-06-12T13:40:36.485Z,20.20
2023-06-12T13:43:04.558Z,21.21
2023-06-12T13:45:33.675Z,20.27
2023-06-12T13:48:03.969Z,20.44
2023-06-12T13:50:34.813Z,20.03
2023-06-12T13:53:03.238Z,19.59
2023-06-12T13:55:31.391Z,19.17
2023-06-12T13:58:01.077Z,19.51
2023-06-12T14:00:29.989Z,18.20
2023-06-12T14:02:58.480Z,18.09
2023-06-12T14:05:26.602Z,19.82
2023-06-12T14:07:56.145Z,18.90
2023-06-12T14:10:26.252Z,19.49
2023-06-12T14:12:55.397Z,18.94
2023-06-12T14:15:24.019Z,20.39
2023-06-12T14:17:53.250Z,18.21
2023-06-12T14:20:21.320Z,18.66
2023-06-12T14:22:49.310Z,18.01
2023-06-12T14:25:19.235Z,20.09
2023-06-12T14:27:47.570Z,18.82
2023-06-12T14:30:15.681Z,17.83
2023-06-12T14:32:43.705Z,18.11
2023-06-12T14:35:11.986Z,19.07
2023-06-12T14:37:40.815Z,19.27
2023-06-12T14:40:09.854Z,18.02
2023-06-12T14:42:40.120Z,17.15
2023-06-12T14:45:09.260Z,16.86
2023-06-12T14:47:37.268Z,18.96
2023-06-12T14:50:06.790Z,17.62
2023-06-12T14:52:34.827Z,19.99
2023-06-12T14:55:03.919Z,17.31
2023-06-12T14:57:33.041Z,17.97
2023-06-12T15:00:02.410Z,17.44
2023-06-12T15:02:31.351Z,16.54
2023-06-12T15:04:59.454Z,15.34
2023-06-12T15:07:28.010Z,15.74
2023-06-12T15:09:56.086Z,16.55
2023-06-12T15:12:24.012Z,16.30
2023-06-12T15:14:54.246Z,17.70
2023-06-12T15:17:23.679Z,17.82
2023-06-12T15:19:53.731Z,17.00
2023-06-12T15:22:22.724Z,17.97
2023-06-12T15:24:50.762Z,16.56
2023-06-12T15:27:19.651Z,16.49
2023-06-12T15:29:47.626Z,16.09
2023-06-12T15:32:16.017Z,15.89
2023-06-12T15:34:46.582Z,15.60
2023-06-12T15:37:17.072Z,15.94
2023-06-12T15:39:48.063Z,14.76
2023-06-12T15:42:16.715Z,14.75
2023-06-12T15:44:46.582Z,14.94
2023-06-12T15:47:15.839Z,15.04
2023-06-12T15:49:47.170Z,15.24
2023-06-12T15:52:15.155Z,16.06
2023-06-12T15:54:43.617Z,14.62
2023-06-12T15:57:11.717Z,14.83
2023-06-12T15:59:40.833Z,15.46
2023-06-12T16:02:09.243Z,15.39
2023-06-12T16:04:37.363Z,15.67
2023-06-12T16:07:08.168Z,14.82
2023-06-12T16:09:37.850Z,14.18
2023-06-12T16:12:06.577Z,14.63
2023-06-12T16:14:34.320Z,14.42
2023-06-12T16:17:03.854Z,14.19
2023-06-12T16:19:32.184Z,13.12
2023-06-12T16:22:00.205Z,14.42
2023-06-12T16:24:30.491Z,14.16
2023-06-12T16:26:59.213Z,13.42
2023-06-12T16:29:28.378Z,13.60
2023-06-12T16:31:56.800Z,13.65
2023-06-12T16:34:25.854Z,13.88
2023-06-12T16:36:53.821Z,14.17
2023-06-12T16:39:22.290Z,13.52
2023-06-12T16:41:51.747Z,15.04
2023-06-12T16:44:20.585Z,15.78
2023-06-12T16:46:48.623Z,15.36
2023-06-12T16:49:17.195Z,14.88
2023-06-12T16:51:45.624Z,14.79
2023-06-12T16:54:14.588Z,15.35
2023-06-12T16:56:43.057Z,15.68
2023-06-12T16:59:12.911Z,14.75
2023-06-12T17:01:41.153Z,15.02
2023-06-12T17:04:09.330Z,15.22
2023-06-12T17:06:38.202Z,14.56
2023-06-12T17:09:08.566Z,14.26
2023-06-12T17:11:36.919Z,15.77
2023-06-12T17:14:05.594Z,15.42
2023-06-12T17:16:35.010Z,14.81
2023-06-12T17:19:03.156Z,14.77
2023-06-12T17:21:31.733Z,15.03
2023-06-12T17:23:59.657Z,15.19
2023-06-12T17:26:27.649Z,15.46
2023-06-12T17:28:55.993Z,15.84
2023-06-12T17:31:24.047Z,16.88
2023-06-12T17:33:54.350Z,15.99
2023-06-12T17:36:22.341Z,15.55
2023-06-12T17:38:51.018Z,16.73
2023-06-12T17:41:19.104Z,17.12
2023-06-12T17:43:47.162Z,18.30
2023-06-12T17:46:17.116Z,17.30
2023-06-12T17:48:47.895Z,18.12
2023-06-12T17:51:17.882Z,18.59
2023-06-12T17:53:46.872Z,19.01
2023-06-12T17:56:15.557Z,18.13
2023-06-12T17:58:44.676Z,18.64
2023-06-12T18:01:14.143Z,18.68
2023-06-12T18:03:42.207Z,19.11
2023-06-12T18:06:11.228Z,19.43
2023-06-12T18:08:40.596Z,19.17
2023-06-12T18:11:09.511Z,20.24
2023-06-12T18:13:37.476Z,20.49
2023-06-12T18:16:06.622Z,19.68
2023-06-12T18:18:35.064Z,20.61
2023-06-12T18:21:03.156Z,21.19
2023-06-12T18:23:31.229Z,21.93
2023-06-12T18:26:01.115Z,22.47
2023-06-12T18:28:33.285Z,24.12
2023-06-12T18:31:02.057Z,25.24
2023-06-12T18:33:31.347Z,25.25
2023-06-12T18:35:59.445Z,24.58
2023-06-12T18:38:27.840Z,23.73
2023-06-12T18:40:56.084Z,24.44
2023-06-12T18:43:25.639Z,24.01
2023-06-12T18:45:53.673Z,25.12
2023-06-12T18:48:21.759Z,25.80
2023-06-12T18:50:50.730Z,27.59
2023-06-12T18:53:18.707Z,28.37
2023-06-12T18:55:49.178Z,28.74
2023-06-12T18:58:18.323Z,29.11
2023-06-12T19:00:47.689Z,29.47
2023-06-12T19:03:15.603Z,29.09
2023-06-12T19:05:43.576Z,28.83
2023-06-12T19:08:11.857Z,29.89
2023-06-12T19:10:39.854Z,29.20
2023-06-12T19:13:10.484Z,29.96
2023-06-12T19:15:38.969Z,30.52
2023-06-12T19:18:09.161Z,31.29
2023-06-12T19:20:38.351Z,31.92
2023-06-12T19:23:06.401Z,32.47
2023-06-12T19:25:34.386Z,33.34
2023-06-12T19:28:02.367Z,33.95
2023-06-12T19:30:30.349Z,34.35
2023-06-12T19:32:58.952Z,34.81
2023-06-12T19:35:28.769Z,34.66
2023-06-12T19:37:56.697Z,35.06
2023-06-12T19:40:24.664Z,35.35
2023-06-12T19:42:52.961Z,35.47
2023-06-12T19:45:24.066Z,35.76
2023-06-12T19:47:53.996Z,36.14
2023-06-12T19:50:22.668Z,36.59
2023-06-12T19:52:52.500Z,36.09
2023-06-12T19:55:21.792Z,36.86
2023-06-12T19:57:50.393Z,37.46
2023-06-12T20:00:19.024Z,38.39
2023-06-12T20:02:47.054Z,38.98
2023-06-12T20:05:15.538Z,40.36
2023-06-12T20:07:43.686Z,41.94
2023-06-12T20:10:15.918Z,42.20
2023-06-12T20:12:44.052Z,43.96
2023-06-12T20:15:12.726Z,44.17
2023-06-12T20:17:41.617Z,44.38
2023-06-12T20:20:09.949Z,43.86
2023-06-12T20:22:37.953Z,44.50
2023-06-12T20:25:07.841Z,44.28
2023-06-12T20:27:45.381Z,45.44
2023-06-12T20:30:14.186Z,45.50
2023-06-12T20:32:42.365Z,46.41
2023-06-12T20:35:11.264Z,48.02
2023-06-12T20:37:39.424Z,47.23
2023-06-12T20:40:08.332Z,47.42
2023-06-12T20:42:36.266Z,48.55
2023-06-12T20:45:07.571Z,48.44
2023-06-12T20:47:35.868Z,48.68
2023-06-12T20:50:04.043Z,49.07
2023-06-12T20:52:33.098Z,47.97
2023-06-12T20:55:01.057Z,48.06
2023-06-12T20:57:31.303Z,47.93
2023-06-12T20:59:59.815Z,48.19
2023-06-12T21:02:30.715Z,48.08
2023-06-12T21:04:59.926Z,47.68
2023-06-12T21:07:27.923Z,48.45
2023-06-12T21:09:56.325Z,48.49
2023-06-12T21:12:24.308Z,48.65
2023-06-12T21:14:52.969Z,48.96
2023-06-12T21:17:21.487Z,49.23
2023-06-12T21:19:51.443Z,49.97
2023-06-12T21:22:38.817Z,49.14
2023-06-12T21:25:08.472Z,48.79
2023-06-12T21:27:36.888Z,48.76
2023-06-12T21:30:07.217Z,49.02
2023-06-12T21:32:37.312Z,49.28
2023-06-12T21:35:08.645Z,50.28
2023-06-12T21:37:37.386Z,49.40
2023-06-12T21:40:06.581Z,49.74
2023-06-12T21:42:35.826Z,48.63
2023-06-12T21:45:04.061Z,49.90
2023-06-12T21:47:33.072Z,48.56
2023-06-12T21:50:01.119Z,49.00
2023-06-12T21:52:30.490Z,49.59
2023-06-12T21:54:58.653Z,50.36
2023-06-12T21:57:27.530Z,49.95
2023-06-12T21:59:55.479Z,50.05
2023-06-12T22:02:25.105Z,51.24
2023-06-12T22:04:53.622Z,50.69
2023-06-12T22:07:22.176Z,51.31
2023-06-12T22:09:51.918Z,51.85
2023-06-12T22:12:20.603Z,51.74
2023-06-12T22:14:48.609Z,51.68
2023-06-12T22:17:17.219Z,51.16
2023-06-12T22:19:45.265Z,51.09
2023-06-12T22:22:13.406Z,51.45
2023-06-12T22:24:41.964Z,51.75
2023-06-12T22:27:11.758Z,52.66
2023-06-12T22:29:39.713Z,53.69
2023-06-12T22:32:10.025Z,53.19
2023-06-12T22:34:38.102Z,53.42
2023-06-12T22:37:06.224Z,53.19
2023-06-12T22:39:36.686Z,53.17
2023-06-12T22:42:05.258Z,52.85
2023-06-12T22:44:34.545Z,52.72
2023-06-12T22:47:03.017Z,52.61
2023-06-12T22:49:31.113Z,53.72
2023-06-12T22:51:59.623Z,53.13
2023-06-12T22:54:28.050Z,54.90
2023-06-12T22:56:56.101Z,54.62
2023-06-12T22:59:24.072Z,54.63
2023-06-12T23:01:54.396Z,55.02
2023-06-12T23:04:22.306Z,56.51
2023-06-12T23:06:50.713Z,55.27
2023-06-12T23:09:19.597Z,55.74
2023-06-12T23:11:47.570Z,54.10
2023-06-12T23:14:16.075Z,55.61
2023-06-12T23:16:45.020Z,55.58
2023-06-12T23:19:14.630Z,56.07
2023-06-12T23:21:43.244Z,58.52
2023-06-12T23:24:13.525Z,57.43
2023-06-12T23:26:42.193Z,58.32
2023-06-12T23:29:10.639Z,57.77
2023-06-12T23:31:39.029Z,57.21
2023-06-12T23:34:07.283Z,58.33
2023-06-12T23:36:40.965Z,58.65
2023-06-12T23:39:09.547Z,58.87
2023-06-12T23:41:38.033Z,58.57
2023-06-12T23:44:07.357Z,59.26
2023-06-12T23:46:35.398Z,60.20
2023-06-12T23:49:04.074Z,59.99
2023-06-12T23:51:33.223Z,60.07
2023-06-12T23:54:03.676Z,60.12
2023-06-12T23:56:32.147Z,59.65
2023-06-12T23:59:00.197Z,60.29
